Kintore, United Kingdom
Current Conditions -  °F | °C
As of 3:50 PM on Friday 28 Nov 2014 (Local Time) from EGPD Reporting Station
Light Rain Light Rain  
Wind Chill: 45°   Ceiling: 700
Heat Index: 48°   Visibility: 3mi
Dew Point: 46°   Wind: 8mph
Humidity: 93%   Direction: 120°ESE
Pressure: 29.88"   Gusts: NA
Location:  57.24°N, 2.35°W
Report Text: EGPD 281550Z 12007KT 5000 -RADZ BKN007 BKN015 09/08 Q1012 TEMPO SCT011
Loading
Personal Weather Stations






























Interactive Weather Map New forecast layout! Learn more

10-Day Weather Forecast

Advertisements
Track Severe Weather on mobile